createdAt,value
2018-08-10T00:00:24.257Z,20.26
2018-08-10T00:02:58.891Z,20.29
2018-08-10T00:05:33.598Z,20.15
2018-08-10T00:08:08.352Z,20.10
2018-08-10T00:10:42.633Z,20.07
2018-08-10T00:13:17.112Z,20.02
2018-08-10T00:15:51.616Z,19.97
2018-08-10T00:18:26.947Z,19.91
2018-08-10T00:21:01.405Z,19.90
2018-08-10T00:23:35.825Z,19.96
2018-08-10T00:26:10.137Z,19.84
2018-08-10T00:28:44.420Z,19.75
2018-08-10T00:31:18.900Z,19.83
2018-08-10T00:33:53.676Z,19.78
2018-08-10T00:36:27.984Z,19.76
2018-08-10T00:39:03.064Z,19.77
2018-08-10T00:41:37.583Z,19.69
2018-08-10T00:44:11.996Z,19.77
2018-08-10T00:46:46.439Z,19.77
2018-08-10T00:49:21.221Z,19.80
2018-08-10T00:51:55.719Z,19.84
2018-08-10T00:54:30.535Z,19.90
2018-08-10T00:57:05.314Z,19.82
2018-08-10T00:59:39.760Z,19.73
2018-08-10T01:02:14.112Z,19.70
2018-08-10T01:04:48.568Z,19.64
2018-08-10T01:07:23.773Z,19.77
2018-08-10T01:09:58.152Z,19.78
2018-08-10T01:12:33.033Z,19.81
2018-08-10T01:15:08.860Z,19.77
2018-08-10T01:17:43.710Z,19.84
2018-08-10T01:20:21.604Z,19.74
2018-08-10T01:23:01.417Z,19.85
2018-08-10T01:25:35.951Z,19.84
2018-08-10T01:28:11.390Z,19.83
2018-08-10T01:30:46.148Z,19.85
2018-08-10T01:33:20.658Z,19.90
2018-08-10T01:35:55.203Z,19.91
2018-08-10T01:38:29.960Z,19.92
2018-08-10T01:41:04.990Z,19.85
2018-08-10T01:43:40.014Z,19.84
2018-08-10T01:46:14.545Z,19.83
2018-08-10T01:48:49.540Z,19.87
2018-08-10T01:51:24.070Z,19.81
2018-08-10T01:53:58.618Z,19.82
2018-08-10T01:56:33.375Z,19.73
2018-08-10T01:59:08.356Z,19.63
2018-08-10T02:01:43.362Z,19.61
2018-08-10T02:04:18.010Z,19.62
2018-08-10T02:06:52.333Z,19.59
2018-08-10T02:09:26.768Z,19.40
2018-08-10T02:12:02.089Z,19.24
2018-08-10T02:14:36.596Z,19.27
2018-08-10T02:17:11.653Z,19.38
2018-08-10T02:19:46.366Z,19.52
2018-08-10T02:22:20.817Z,19.57
2018-08-10T02:24:55.489Z,19.61
2018-08-10T02:27:30.193Z,19.64
2018-08-10T02:30:06.365Z,19.59
2018-08-10T02:32:47.256Z,19.53
2018-08-10T02:35:22.096Z,19.64
2018-08-10T02:37:57.726Z,19.59
2018-08-10T02:40:32.761Z,19.61
2018-08-10T02:43:07.505Z,19.62
2018-08-10T02:45:42.233Z,19.67
2018-08-10T02:48:17.297Z,19.64
2018-08-10T02:50:52.049Z,19.64
2018-08-10T02:53:27.014Z,19.61
2018-08-10T02:56:01.560Z,19.65
2018-08-10T02:58:37.014Z,19.62
2018-08-10T03:01:11.509Z,19.63
2018-08-10T03:03:45.813Z,19.60
2018-08-10T03:06:20.993Z,19.55
2018-08-10T03:08:55.980Z,19.58
2018-08-10T03:11:30.732Z,19.59
2018-08-10T03:14:06.672Z,19.51
2018-08-10T03:16:42.332Z,19.53
2018-08-10T03:19:17.699Z,19.59
2018-08-10T03:21:52.224Z,19.62
2018-08-10T03:24:27.033Z,19.77
2018-08-10T03:27:02.060Z,19.70
2018-08-10T03:29:37.577Z,19.69
2018-08-10T03:32:12.036Z,19.69
2018-08-10T03:34:46.672Z,19.69
2018-08-10T03:37:21.544Z,19.69
2018-08-10T03:39:56.469Z,19.78
2018-08-10T03:42:31.251Z,19.78
2018-08-10T03:45:06.864Z,19.73
2018-08-10T03:47:41.621Z,19.73
2018-08-10T03:50:16.426Z,19.71
2018-08-10T03:52:51.080Z,19.75
2018-08-10T03:55:26.187Z,19.76
2018-08-10T03:58:00.667Z,19.78
2018-08-10T04:00:35.588Z,19.78
2018-08-10T04:03:10.053Z,19.73
2018-08-10T04:05:45.252Z,19.73
2018-08-10T04:08:19.689Z,19.70
2018-08-10T04:10:54.402Z,19.63
2018-08-10T04:13:29.215Z,19.60
2018-08-10T04:16:03.960Z,19.65
2018-08-10T04:18:39.060Z,19.66
2018-08-10T04:21:13.393Z,19.64
2018-08-10T04:23:48.431Z,19.60
2018-08-10T04:26:23.016Z,19.60
2018-08-10T04:28:57.735Z,19.60
2018-08-10T04:31:32.053Z,19.60
2018-08-10T04:34:06.501Z,19.69
2018-08-10T04:36:41.301Z,19.72
2018-08-10T04:39:16.412Z,19.69
2018-08-10T04:41:51.222Z,19.67
2018-08-10T04:44:25.546Z,19.69
2018-08-10T04:47:00.232Z,19.69
2018-08-10T04:49:34.684Z,19.67
2018-08-10T04:52:09.389Z,19.65
2018-08-10T04:54:44.133Z,19.72
2018-08-10T04:57:18.544Z,19.60
2018-08-10T04:59:55.597Z,19.55
2018-08-10T05:02:30.439Z,19.46
2018-08-10T05:05:09.552Z,19.44
2018-08-10T05:07:44.923Z,19.44
2018-08-10T05:10:19.919Z,19.49
2018-08-10T05:12:57.599Z,19.56
2018-08-10T05:15:32.420Z,19.60
2018-08-10T05:18:07.767Z,19.59
2018-08-10T05:20:44.094Z,19.62
2018-08-10T05:23:18.836Z,19.66
2018-08-10T05:25:54.824Z,19.68
2018-08-10T05:28:29.867Z,19.69
2018-08-10T05:31:04.709Z,19.71
2018-08-10T05:33:40.277Z,19.72
2018-08-10T05:36:18.725Z,19.75
2018-08-10T05:38:54.107Z,19.70
2018-08-10T05:41:29.384Z,19.77
2018-08-10T05:44:04.021Z,19.79
2018-08-10T05:46:40.527Z,19.72
2018-08-10T05:49:15.177Z,19.39
2018-08-10T05:51:49.606Z,18.90
2018-08-10T05:54:24.304Z,18.72
2018-08-10T05:56:59.117Z,18.52
2018-08-10T05:59:33.846Z,18.41
2018-08-10T06:02:08.615Z,18.37
2018-08-10T06:04:44.248Z,18.27
2018-08-10T06:07:19.049Z,18.22
2018-08-10T06:09:54.277Z,18.17
2018-08-10T06:12:30.124Z,18.13
2018-08-10T06:15:04.722Z,18.03
2018-08-10T06:17:39.080Z,18.01
2018-08-10T06:20:13.400Z,18.02
2018-08-10T06:22:47.882Z,18.02
2018-08-10T06:25:22.662Z,17.98
2018-08-10T06:27:57.102Z,18.06
2018-08-10T06:30:31.425Z,18.07
2018-08-10T06:33:06.178Z,17.98
2018-08-10T06:35:40.510Z,17.93
2018-08-10T06:38:15.375Z,18.08
2018-08-10T06:40:49.792Z,18.00
2018-08-10T06:43:24.117Z,17.88
2018-08-10T06:45:58.533Z,17.72
2018-08-10T06:48:33.026Z,17.41
2018-08-10T06:51:18.079Z,17.22
2018-08-10T06:53:52.639Z,16.91
2018-08-10T06:56:26.903Z,16.93
2018-08-10T06:59:01.491Z,16.85
2018-08-10T07:01:36.142Z,16.87
2018-08-10T07:04:11.073Z,16.76
2018-08-10T07:06:45.524Z,16.79
2018-08-10T07:09:20.769Z,16.84
2018-08-10T07:12:39.226Z,16.99
2018-08-10T07:15:13.990Z,17.02
2018-08-10T07:17:48.744Z,16.98
2018-08-10T07:20:23.388Z,17.11
2018-08-10T07:22:57.829Z,17.20
2018-08-10T07:25:32.764Z,17.10
2018-08-10T07:28:07.944Z,17.07
2018-08-10T07:30:42.676Z,16.99
2018-08-10T07:33:17.071Z,16.69
2018-08-10T07:35:52.240Z,16.58
2018-08-10T07:38:26.645Z,16.55
2018-08-10T07:41:01.237Z,16.26
2018-08-10T07:43:36.132Z,16.29
2018-08-10T07:46:10.576Z,16.33
2018-08-10T07:48:48.813Z,16.16
2018-08-10T07:51:23.736Z,16.24
2018-08-10T07:53:58.364Z,16.22
2018-08-10T07:56:33.473Z,16.18
2018-08-10T07:59:10.510Z,16.33
2018-08-10T08:01:49.780Z,16.25
2018-08-10T08:04:24.428Z,16.25
2018-08-10T08:06:58.938Z,16.42
2018-08-10T08:09:33.616Z,16.51
2018-08-10T08:12:10.938Z,16.62
2018-08-10T08:14:47.656Z,16.61
2018-08-10T08:17:29.193Z,16.69
2018-08-10T08:20:07.264Z,16.78
2018-08-10T08:22:42.126Z,16.72
2018-08-10T08:25:17.079Z,16.67
2018-08-10T08:27:52.117Z,16.70
2018-08-10T08:30:27.012Z,16.59
2018-08-10T08:33:05.033Z,16.63
2018-08-10T08:35:40.237Z,16.64
2018-08-10T08:38:26.473Z,16.70
2018-08-10T08:41:01.117Z,16.72
2018-08-10T08:46:06.333Z,16.75
2018-08-10T08:48:44.996Z,16.98
2018-08-10T08:51:30.211Z,17.25
2018-08-10T08:57:01.331Z,17.15
2018-08-10T08:59:36.546Z,17.22
2018-08-10T09:02:18.530Z,17.32
2018-08-10T09:04:59.612Z,17.36
2018-08-10T09:07:34.310Z,17.32
2018-08-10T09:10:11.926Z,17.25
2018-08-10T09:12:46.588Z,17.21
2018-08-10T09:15:22.214Z,17.06
2018-08-10T09:17:57.192Z,16.84
2018-08-10T09:20:31.835Z,16.81
2018-08-10T09:23:07.969Z,16.71
2018-08-10T09:25:42.288Z,16.82
2018-08-10T09:28:16.848Z,16.93
2018-08-10T09:30:51.820Z,17.01
2018-08-10T09:33:26.352Z,17.01
2018-08-10T09:36:00.762Z,17.12
2018-08-10T09:38:35.438Z,17.21
2018-08-10T09:41:10.505Z,17.35
2018-08-10T09:43:45.531Z,17.24
2018-08-10T09:46:20.485Z,17.14
2018-08-10T09:48:54.957Z,17.01
2018-08-10T09:51:29.565Z,16.79
2018-08-10T09:54:05.065Z,16.72
2018-08-10T09:56:40.396Z,16.92
2018-08-10T09:59:14.733Z,17.10
2018-08-10T10:01:55.032Z,17.23
2018-08-10T10:04:29.585Z,17.25
2018-08-10T10:07:04.346Z,17.32
2018-08-10T10:09:39.461Z,17.36
2018-08-10T10:12:17.231Z,17.11
2018-08-10T10:14:54.858Z,16.94
2018-08-10T10:17:29.630Z,16.70
2018-08-10T10:20:05.544Z,16.79
2018-08-10T10:22:40.292Z,16.86
2018-08-10T10:25:15.140Z,17.00
2018-08-10T10:27:49.881Z,17.19
2018-08-10T10:30:24.430Z,17.23
2018-08-10T10:33:02.890Z,17.04
2018-08-10T10:35:37.764Z,17.12
2018-08-10T10:38:12.676Z,17.15
2018-08-10T10:40:47.808Z,17.06
2018-08-10T10:43:22.072Z,17.04
2018-08-10T10:45:56.519Z,17.15
2018-08-10T10:48:31.885Z,17.35
2018-08-10T10:51:06.601Z,17.59
2018-08-10T10:53:43.173Z,18.09
2018-08-10T10:56:18.059Z,18.39
2018-08-10T10:58:52.376Z,18.44
2018-08-10T11:01:27.312Z,18.45
2018-08-10T11:04:04.589Z,18.41
2018-08-10T11:06:39.574Z,18.54
2018-08-10T11:09:14.773Z,18.63
2018-08-10T11:11:49.696Z,18.72
2018-08-10T11:14:24.341Z,18.79
2018-08-10T11:17:00.444Z,18.65
2018-08-10T11:19:35.021Z,18.45
2018-08-10T11:22:13.080Z,18.37
2018-08-10T11:24:48.172Z,18.36
2018-08-10T11:27:23.367Z,18.31
2018-08-10T11:29:57.886Z,18.47
2018-08-10T11:32:33.017Z,18.48
2018-08-10T11:35:08.333Z,18.77
2018-08-10T11:37:43.028Z,18.93
2018-08-10T11:40:17.404Z,19.07
2018-08-10T11:42:52.422Z,19.33
2018-08-10T11:45:26.791Z,19.69
2018-08-10T11:48:01.996Z,19.95
2018-08-10T11:50:36.605Z,19.99
2018-08-10T11:53:28.848Z,19.67
2018-08-10T11:56:06.573Z,19.75
2018-08-10T11:58:43.166Z,19.73
2018-08-10T12:01:18.697Z,19.78
2018-08-10T12:03:53.931Z,19.84
2018-08-10T12:06:28.802Z,19.97
2018-08-10T12:09:04.756Z,19.99
2018-08-10T12:11:39.683Z,19.91
2018-08-10T12:14:14.171Z,20.09
2018-08-10T12:16:49.516Z,20.11
2018-08-10T12:19:23.889Z,20.09
2018-08-10T12:21:58.176Z,20.05
2018-08-10T12:24:33.284Z,20.03
2018-08-10T12:27:08.761Z,19.90
2018-08-10T12:29:43.632Z,19.69
2018-08-10T12:32:18.311Z,19.47
2018-08-10T12:34:52.808Z,19.45
2018-08-10T12:37:27.673Z,19.38
2018-08-10T12:40:02.739Z,19.27
2018-08-10T12:42:37.528Z,19.30
2018-08-10T12:45:12.311Z,19.38
2018-08-10T12:47:47.391Z,19.40
2018-08-10T12:50:22.133Z,19.46
2018-08-10T12:52:57.118Z,19.57
2018-08-10T12:55:32.330Z,19.65
2018-08-10T12:58:07.065Z,19.81
2018-08-10T13:00:41.968Z,19.94
2018-08-10T13:03:18.305Z,20.11
2018-08-10T13:05:56.201Z,20.28
2018-08-10T13:08:31.092Z,20.49
2018-08-10T13:11:05.636Z,20.51
2018-08-10T13:13:40.265Z,20.49
2018-08-10T13:16:15.153Z,20.48
2018-08-10T13:18:49.760Z,20.43
2018-08-10T13:21:24.763Z,20.57
2018-08-10T13:23:59.754Z,20.54
2018-08-10T13:26:34.509Z,20.48
2018-08-10T13:29:09.120Z,20.24
2018-08-10T13:31:43.528Z,20.21
2018-08-10T13:34:18.312Z,19.86
2018-08-10T13:36:54.633Z,19.94
2018-08-10T13:39:35.725Z,20.02
2018-08-10T13:42:16.741Z,20.10
2018-08-10T13:44:54.556Z,20.22
2018-08-10T13:47:32.973Z,20.33
2018-08-10T13:50:20.577Z,20.43
2018-08-10T13:52:59.050Z,20.46
2018-08-10T13:55:47.171Z,20.50
2018-08-10T13:58:29.267Z,20.45
2018-08-10T14:01:09.633Z,20.23
2018-08-10T14:03:55.003Z,20.12
2018-08-10T14:06:34.909Z,20.04
2018-08-10T14:09:27.320Z,20.09
2018-08-10T14:12:06.039Z,20.26
2018-08-10T14:14:47.829Z,20.35
2018-08-10T14:17:26.422Z,20.34
2018-08-10T14:20:02.391Z,20.23
2018-08-10T14:22:42.627Z,20.11
2018-08-10T14:25:21.065Z,19.94
2018-08-10T14:27:57.676Z,19.85
2018-08-10T14:30:36.369Z,19.83
2018-08-10T14:33:12.595Z,19.83
2018-08-10T14:35:49.122Z,19.77
2018-08-10T14:38:30.174Z,19.83
2018-08-10T14:41:06.234Z,19.89
2018-08-10T14:43:43.265Z,19.89
2018-08-10T14:46:20.612Z,19.82
2018-08-10T14:49:02.366Z,19.78
2018-08-10T14:51:38.970Z,19.82
2018-08-10T14:54:22.316Z,19.73
2018-08-10T14:57:03.413Z,19.60
2018-08-10T14:59:39.962Z,19.58
2018-08-10T15:02:16.095Z,19.60
2018-08-10T15:04:52.489Z,19.59
2018-08-10T15:07:29.078Z,19.65
2018-08-10T15:10:06.515Z,19.77
2018-08-10T15:12:42.939Z,19.91
2018-08-10T15:15:22.079Z,20.00
2018-08-10T15:17:59.493Z,20.03
2018-08-10T15:20:36.612Z,20.09
2018-08-10T15:23:12.454Z,19.98
2018-08-10T15:25:47.878Z,20.07
2018-08-10T15:28:23.228Z,20.20
2018-08-10T15:30:58.979Z,20.31
2018-08-10T15:33:33.857Z,20.21
2018-08-10T15:36:08.428Z,20.16
2018-08-10T15:38:44.905Z,20.20
2018-08-10T15:41:19.984Z,20.34
2018-08-10T15:43:54.820Z,20.42
2018-08-10T15:46:29.184Z,20.36
2018-08-10T15:49:03.639Z,20.33
2018-08-10T15:51:39.986Z,20.30
2018-08-10T15:54:14.442Z,20.27
2018-08-10T15:56:48.849Z,20.17
2018-08-10T15:59:23.348Z,20.08
2018-08-10T16:01:57.864Z,19.94
2018-08-10T16:04:32.612Z,19.90
2018-08-10T16:07:07.268Z,19.82
2018-08-10T16:09:42.024Z,19.80
2018-08-10T16:12:16.529Z,19.77
2018-08-10T16:14:51.373Z,19.84
2018-08-10T16:17:26.227Z,19.80
2018-08-10T16:20:01.276Z,19.70
2018-08-10T16:22:36.455Z,19.70
2018-08-10T16:25:11.902Z,19.63
2018-08-10T16:27:46.372Z,19.69
2018-08-10T16:30:21.269Z,19.68
2018-08-10T16:32:56.820Z,19.65
2018-08-10T16:35:31.422Z,19.56
2018-08-10T16:38:06.109Z,19.40
2018-08-10T16:40:40.523Z,19.25
2018-08-10T16:43:14.927Z,19.10
2018-08-10T16:45:49.402Z,18.94
2018-08-10T16:48:24.280Z,18.91
2018-08-10T16:50:59.046Z,18.83
2018-08-10T16:53:34.042Z,18.81
2018-08-10T16:56:08.580Z,18.73
2018-08-10T16:58:43.029Z,18.62
2018-08-10T17:01:17.681Z,18.53
2018-08-10T17:03:52.348Z,18.62
2018-08-10T17:06:28.803Z,18.61
2018-08-10T17:09:04.141Z,18.53
2018-08-10T17:11:39.086Z,18.47
2018-08-10T17:14:13.896Z,18.41
2018-08-10T17:16:48.336Z,18.42
2018-08-10T17:19:22.792Z,18.40
2018-08-10T17:21:57.478Z,18.41
2018-08-10T17:24:32.475Z,18.37
2018-08-10T17:27:07.084Z,18.28
2018-08-10T17:29:42.090Z,18.21
2018-08-10T17:32:16.577Z,18.26
2018-08-10T17:34:51.344Z,18.27
2018-08-10T17:37:25.742Z,18.25
2018-08-10T17:40:00.588Z,18.26
2018-08-10T17:42:35.256Z,18.21
2018-08-10T17:45:12.570Z,18.18
2018-08-10T17:47:47.132Z,18.13
2018-08-10T17:50:22.196Z,18.06
2018-08-10T17:52:57.014Z,18.06
2018-08-10T17:55:31.579Z,18.07
2018-08-10T17:58:06.412Z,18.02
2018-08-10T18:00:40.957Z,18.03
2018-08-10T18:03:15.864Z,18.05
2018-08-10T18:05:50.728Z,18.06
2018-08-10T18:08:25.545Z,18.00
2018-08-10T18:11:00.280Z,17.99
2018-08-10T18:13:35.059Z,17.87
2018-08-10T18:16:10.143Z,17.83
2018-08-10T18:18:44.957Z,17.79
2018-08-10T18:21:19.848Z,17.75
2018-08-10T18:23:54.324Z,17.74
2018-08-10T18:26:28.840Z,17.75
2018-08-10T18:29:03.367Z,17.66
2018-08-10T18:31:38.169Z,17.57
2018-08-10T18:34:12.807Z,17.50
2018-08-10T18:36:47.628Z,17.41
2018-08-10T18:39:22.245Z,17.31
2018-08-10T18:41:59.009Z,17.27
2018-08-10T18:44:33.528Z,17.27
2018-08-10T18:47:08.092Z,17.25
2018-08-10T18:49:42.952Z,17.29
2018-08-10T18:52:17.448Z,17.15
2018-08-10T18:54:52.195Z,17.09
2018-08-10T18:57:27.441Z,17.12
2018-08-10T19:00:01.945Z,17.08
2018-08-10T19:02:36.751Z,17.02
2018-08-10T19:05:12.780Z,17.03
2018-08-10T19:07:48.577Z,16.99
2018-08-10T19:10:25.696Z,16.99
2018-08-10T19:13:00.137Z,16.95
2018-08-10T19:15:53.234Z,16.93
2018-08-10T19:18:31.397Z,16.80
2018-08-10T19:21:07.166Z,16.82
2018-08-10T19:23:41.924Z,16.81
2018-08-10T19:26:16.625Z,16.68
2018-08-10T19:28:51.979Z,16.68
2018-08-10T19:31:29.247Z,16.67
2018-08-10T19:34:04.735Z,16.61
2018-08-10T19:36:39.155Z,16.59
2018-08-10T19:39:13.592Z,16.62
2018-08-10T19:41:48.571Z,16.57
2018-08-10T19:44:23.395Z,16.56
2018-08-10T19:46:58.857Z,16.50
2018-08-10T19:49:33.993Z,16.44
2018-08-10T19:52:08.551Z,16.39
2018-08-10T19:54:43.380Z,16.39
2018-08-10T19:57:18.167Z,16.32
2018-08-10T19:59:52.494Z,16.32
2018-08-10T20:02:27.049Z,16.27
2018-08-10T20:05:02.033Z,16.19
2018-08-10T20:07:37.052Z,16.20
2018-08-10T20:10:12.597Z,16.16
2018-08-10T20:12:47.147Z,16.10
2018-08-10T20:15:21.679Z,16.03
2018-08-10T20:17:56.380Z,16.06
2018-08-10T20:20:31.219Z,15.99
2018-08-10T20:23:05.844Z,16.00
2018-08-10T20:25:40.663Z,15.98
2018-08-10T20:28:15.567Z,15.98
2018-08-10T20:30:50.161Z,15.96
2018-08-10T20:33:24.725Z,15.92
2018-08-10T20:35:59.212Z,15.90
2018-08-10T20:38:34.019Z,15.84
2018-08-10T20:41:09.084Z,15.79
2018-08-10T20:43:44.109Z,15.78
2018-08-10T20:46:19.098Z,15.77
2018-08-10T20:48:53.469Z,15.78
2018-08-10T20:51:28.132Z,15.74
2018-08-10T20:54:02.421Z,15.75
2018-08-10T20:56:36.844Z,15.71
2018-08-10T20:59:11.349Z,15.66
2018-08-10T21:01:46.204Z,15.59
2018-08-10T21:04:21.531Z,15.54
2018-08-10T21:06:56.427Z,15.50
2018-08-10T21:09:31.297Z,15.49
2018-08-10T21:12:05.980Z,15.47
2018-08-10T21:14:40.738Z,15.34
2018-08-10T21:17:15.578Z,15.27
2018-08-10T21:19:50.408Z,15.20
2018-08-10T21:22:24.928Z,15.16
2018-08-10T21:24:59.553Z,15.17
2018-08-10T21:27:34.008Z,15.28
2018-08-10T21:30:12.632Z,15.25
2018-08-10T21:32:47.456Z,15.16
2018-08-10T21:35:22.543Z,15.11
2018-08-10T21:37:56.957Z,15.08
2018-08-10T21:40:31.757Z,15.12
2018-08-10T21:43:06.475Z,15.10
2018-08-10T21:45:41.900Z,15.06
2018-08-10T21:48:16.675Z,15.00
2018-08-10T21:50:51.104Z,15.01
2018-08-10T21:53:25.649Z,15.00
2018-08-10T21:56:00.264Z,14.92
2018-08-10T21:58:34.799Z,14.87
2018-08-10T22:01:09.634Z,14.87
2018-08-10T22:03:43.918Z,14.85
2018-08-10T22:06:19.287Z,14.79
2018-08-10T22:08:54.388Z,14.74
2018-08-10T22:11:35.297Z,14.74
2018-08-10T22:14:16.090Z,14.69
2018-08-10T22:16:56.686Z,14.72
2018-08-10T22:19:31.233Z,14.76
2018-08-10T22:22:06.088Z,14.85
2018-08-10T22:24:40.632Z,14.88
2018-08-10T22:27:15.572Z,14.91
2018-08-10T22:29:50.443Z,14.97
2018-08-10T22:32:25.235Z,14.97
2018-08-10T22:35:00.024Z,14.94
2018-08-10T22:37:34.852Z,15.02
2018-08-10T22:40:09.649Z,14.99
2018-08-10T22:42:44.032Z,15.07
2018-08-10T22:45:19.200Z,15.16
2018-08-10T22:47:54.229Z,15.20
2018-08-10T22:50:29.341Z,15.16
2018-08-10T22:53:03.879Z,15.17
2018-08-10T22:55:38.459Z,15.15
2018-08-10T22:58:13.013Z,15.18
2018-08-10T23:00:48.011Z,15.13
2018-08-10T23:03:22.896Z,15.08
2018-08-10T23:05:57.328Z,15.08
2018-08-10T23:08:31.834Z,15.07
2018-08-10T23:11:07.284Z,15.08
2018-08-10T23:13:42.171Z,15.06
2018-08-10T23:16:16.604Z,15.02
2018-08-10T23:18:51.073Z,15.02
2018-08-10T23:21:25.973Z,15.03
2018-08-10T23:24:00.369Z,14.99
2018-08-10T23:26:35.534Z,14.94
2018-08-10T23:29:10.528Z,14.91
2018-08-10T23:31:45.828Z,14.90
2018-08-10T23:34:20.959Z,15.04
2018-08-10T23:36:55.507Z,15.01
2018-08-10T23:39:30.259Z,14.93
2018-08-10T23:42:05.393Z,14.94
2018-08-10T23:44:40.265Z,15.02
2018-08-10T23:47:14.763Z,15.02
2018-08-10T23:49:50.397Z,14.89
2018-08-10T23:52:25.348Z,14.84
2018-08-10T23:54:59.675Z,14.87
2018-08-10T23:57:34.720Z,14.83
